Terminal Aerodrome Forecast
Issued by NWS

Home | Current Version | Previous Version | Graphics & Text | Print | Product List | Glossary On
Versions: 1 2 3 4 5 6 7 8 9 10 11 12 13 14 15 16 17 18 19 20
000
FTUS43 KICT 041139
TAFSLN
TAF
KSLN 041139Z 0412/0512 27010KT P6SM SCT100 OVC150
     FM041800 15007KT P6SM SCT050 OVC150
     FM050000 15010KT P6SM VCTS SCT050CB BKN100
     FM050900 17010KT P6SM BKN100=

USA.gov is the U.S. government's official web portal to all federal, state and local government web resources and services.